AKDT,Max TemperatureF,Mean TemperatureF,Min TemperatureF,Max Dew PointF,MeanDew PointF,Min DewpointF,Max Humidity, Mean Humidity, Min Humidity, Max Sea Level PressureIn, Mean Sea Level PressureIn, Min Sea Level PressureIn, Max VisibilityMiles, Mean VisibilityMiles, Min VisibilityMiles, Max Wind SpeedMPH, Mean Wind SpeedMPH, Max Gust SpeedMPH,PrecipitationIn, CloudCover, Events, WindDirDegrees
2013-7-1,55,52,50,54,51,48,100,92,75,29.85,29.75,29.62,10,8,3,5,1,,0.08,8,,15
2013-7-2,61,56,50,51,47,43,96,75,45,29.90,29.73,29.63,10,10,10,16,4,22,0.08,7,,183
2013-7-3,59,54,48,50,47,45,93,80,60,30.03,30.00,29.91,10,10,10,7,2,,0.02,8,,204
2013-7-4,55,52,50,50,49,46,96,90,81,30.09,30.05,30.02,10,8,2,4,0,,0.16,8,Fog-Rain,315
2013-7-5,63,56,48,52,48,44,100,87,56,30.10,30.08,30.02,10,9,3,6,1,,0.16,8,Rain,124
2013-7-6,61,56,50,51,49,46,96,80,58,30.08,29.98,29.80,10,10,10,6,2,,0.00,8,Rain,7
2013-7-7,66,58,50,54,50,46,97,81,49,29.78,29.65,29.58,10,10,8,6,1,,0.04,6,Rain,37
2013-7-8,60,54,48,52,47,45,100,79,52,29.83,29.74,29.67,10,10,10,9,3,,0.00,7,,196
2013-7-9,64,58,51,53,49,46,87,75,50,30.01,29.94,29.84,10,10,4,8,5,,0.08,8,Rain,191
2013-7-10,72,62,52,57,51,45,93,74,34,30.06,30.01,29.95,10,10,10,10,3,,0.00,4,Rain,68
2013-7-11,80,67,54,55,50,45,96,59,24,29.97,29.93,29.87,10,10,10,9,2,,0.01,4,Rain,247
2013-7-12,82,66,51,52,50,46,93,55,23,29.98,29.93,29.87,10,10,10,10,1,,0.00,0,,206
2013-7-13,77,68,60,53,51,47,75,53,30,30.14,30.03,29.93,10,10,10,16,6,,0.00,3,Rain,189
2013-7-14,73,62,50,53,50,47,89,63,40,30.31,30.26,30.17,10,10,10,11,5,,0.00,1,,196
2013-7-15,66,58,50,54,51,48,93,76,58,30.36,30.31,30.25,10,10,10,13,3,,0.00,6,,198
2013-7-16,66,60,54,56,53,51,93,78,56,30.26,30.20,30.13,10,10,7,5,1,,0.00,7,,183
2013-7-17,70,64,57,58,55,53,93,75,59,30.14,30.11,30.07,10,10,10,6,1,,0.00,7,Rain,240
2013-7-18,69,63,57,59,57,55,96,79,62,30.16,30.14,30.12,10,10,10,9,2,,0.00,8,Rain,212
2013-7-19,73,66,59,57,55,54,90,74,53,30.17,30.13,30.09,10,10,10,14,7,20,0.00,6,Rain,199
2013-7-20,72,62,53,54,51,44,93,70,37,30.12,30.10,30.05,10,10,10,8,1,,0.03,3,,3
2013-7-21,75,62,48,51,43,38,89,48,17,30.08,30.03,29.99,10,10,10,14,4,22,0.00,0,,17
2013-7-22,82,68,55,56,45,40,78,42,16,30.09,30.05,30.02,10,10,10,8,5,,0.00,0,,332
2013-7-23,82,67,52,53,50,48,87,55,24,30.13,30.07,30.00,10,10,10,6,1,,0.00,2,,209
2013-7-24,82,68,54,59,53,48,89,58,30,30.05,29.98,29.91,10,10,10,5,1,,0.00,2,,210
2013-7-25,75,68,60,63,58,54,96,74,43,30.06,29.98,29.93,10,10,3,6,2,,0.12,6,Rain-Thunderstorm,173
2013-7-26,73,65,57,61,59,57,100,84,54,30.27,30.17,30.07,10,8,0,9,1,,0.00,6,Fog,200
2013-7-27,77,66,54,59,56,54,97,73,43,30.36,30.32,30.26,10,10,5,8,2,,0.00,4,,203
2013-7-28,81,67,53,61,57,52,96,68,40,30.31,30.23,30.12,10,10,10,10,3,,0.00,0,,192
2013-7-29,78,66,55,59,57,54,93,69,46,30.20,30.16,30.11,10,10,10,8,2,,0.00,2,,188
2013-7-30,78,65,52,59,57,52,97,70,46,30.23,30.18,30.13,10,10,10,9,2,,0.00,1,,198
2013-7-31,75,65,55,59,55,53,97,68,43,30.22,30.17,30.09,10,10,10,8,4,,0.00,1,,198